Time;durP1;ratioP1;P1;durP2;ratioP2;P2;SDS_P1;SDS_P2;PMS_P1;PMS_P2;Temp;Humidity;BMP_temperature;BMP_pressure;BME280_temperature;BME280_humidity;BME280_pressure;Samples;Min_cycle;Max_cycle;Signal;HPM_P1;HPM_P2
2021/11/21 00:02:15;;;;;;;3.13;1.10;;;;;;;;;;5009192;28;20053;-71
2021/11/21 00:04:41;;;;;;;0.45;0.45;;;;;;;;;;5009170;28;20026;-71
2021/11/21 00:07:07;;;;;;;10.43;2.92;;;;;;;;;;5009170;28;20030;-71
2021/11/21 00:09:33;;;;;;;2.75;1.42;;;;;;;;;;5009331;28;20026;-71
2021/11/21 00:11:59;;;;;;;1.42;1.30;;;;;;;;;;5008548;28;20037;-71
2021/11/21 00:14:25;;;;;;;2.38;2.10;;;;;;;;;;5009289;28;20034;-71
2021/11/21 00:16:56;;;;;;;2.05;1.77;;;;;;;;;;5009405;28;20037;-70
2021/11/21 00:19:22;;;;;;;2.97;2.30;;;;;;;;;;5009454;28;20101;-71
2021/11/21 00:21:48;;;;;;;1.58;1.10;;;;;;;;;;5008641;28;20114;-71
2021/11/21 00:24:14;;;;;;;0.57;0.57;;;;;;;;;;5006575;28;20048;-74
2021/11/21 00:26:40;;;;;;;1.80;1.67;;;;;;;;;;5010823;28;20537;-69
2021/11/21 00:29:06;;;;;;;3.00;2.13;;;;;;;;;;5009667;28;20030;-70
2021/11/21 00:31:32;;;;;;;0.63;0.63;;;;;;;;;;5009962;28;20125;-72
2021/11/21 00:33:58;;;;;;;2.17;1.48;;;;;;;;;;5006806;28;20374;-70
2021/11/21 00:36:24;;;;;;;7.60;1.90;;;;;;;;;;5009520;28;20030;-70
2021/11/21 00:38:50;;;;;;;3.53;1.23;;;;;;;;;;5011476;28;20026;-70
2021/11/21 00:41:16;;;;;;;1.13;1.00;;;;;;;;;;5008185;28;20037;-70
2021/11/21 00:43:41;;;;;;;1.25;1.15;;;;;;;;;;5009049;28;20018;-70
2021/11/21 00:46:07;;;;;;;0.95;0.95;;;;;;;;;;5009331;28;20056;-69
2021/11/21 00:48:37;;;;;;;3.28;2.67;;;;;;;;;;5008656;28;20021;-69
2021/11/21 00:51:03;;;;;;;1.13;1.00;;;;;;;;;;5009443;28;20080;-69
2021/11/21 00:53:30;;;;;;;3.92;2.30;;;;;;;;;;5008535;28;20053;-69
2021/11/21 00:56:03;;;;;;;0.90;0.68;;;;;;;;;;5005386;28;20525;-69
2021/11/21 00:58:29;;;;;;;2.08;0.52;;;;;;;;;;5009152;28;20544;-69
2021/11/21 01:00:55;;;;;;;1.00;0.95;;;;;;;;;;5008409;28;20046;-70
2021/11/21 01:03:22;;;;;;;0.95;0.95;;;;;;;;;;5010002;28;20155;-69
2021/11/21 01:05:48;;;;;;;1.10;0.68;;;;;;;;;;5012423;28;20030;-69
2021/11/21 01:08:15;;;;;;;1.85;1.33;;;;;;;;;;5012368;28;20030;-69
2021/11/21 01:10:42;;;;;;;1.17;1.08;;;;;;;;;;5012072;28;20076;-69
2021/11/21 01:13:08;;;;;;;0.65;0.63;;;;;;;;;;5011460;28;20065;-69
2021/11/21 01:15:34;;;;;;;0.90;0.80;;;;;;;;;;5014590;28;20477;-69
2021/11/21 01:18:00;;;;;;;1.00;0.90;;;;;;;;;;5012068;28;20033;-69
2021/11/21 01:20:28;;;;;;;10.88;1.60;;;;;;;;;;5011344;28;20034;-69
2021/11/21 01:22:54;;;;;;;1.17;1.08;;;;;;;;;;5011261;28;20021;-69
2021/11/21 01:25:20;;;;;;;0.30;0.30;;;;;;;;;;5011450;28;20026;-69
2021/11/21 01:27:46;;;;;;;0.80;0.63;;;;;;;;;;5012326;28;20195;-68
2021/11/21 01:30:15;;;;;;;1.90;1.80;;;;;;;;;;5011678;28;20033;-68
2021/11/21 01:32:41;;;;;;;1.60;0.77;;;;;;;;;;5010850;28;20037;-69
2021/11/21 01:35:07;;;;;;;0.20;0.20;;;;;;;;;;5017905;28;20521;-68
2021/11/21 01:37:33;;;;;;;1.05;0.93;;;;;;;;;;5012388;28;20026;-69
2021/11/21 01:39:59;;;;;;;0.98;0.98;;;;;;;;;;5011512;28;20030;-69
2021/11/21 01:42:25;;;;;;;1.75;1.58;;;;;;;;;;5011631;28;20037;-69
2021/11/21 01:44:51;;;;;;;1.38;1.27;;;;;;;;;;5011171;28;20025;-69
2021/11/21 01:47:17;;;;;;;0.32;0.32;;;;;;;;;;5012296;28;20037;-69
2021/11/21 01:49:43;;;;;;;0.30;0.20;;;;;;;;;;5012661;28;20057;-69
2021/11/21 01:52:09;;;;;;;0.38;0.38;;;;;;;;;;5011883;28;20076;-69
2021/11/21 01:54:35;;;;;;;3.20;1.38;;;;;;;;;;5011759;28;20147;-69
2021/11/21 01:57:02;;;;;;;1.33;1.02;;;;;;;;;;5012908;28;20030;-69
2021/11/21 01:59:28;;;;;;;0.52;0.52;;;;;;;;;;5014707;28;20120;-69
2021/11/21 02:01:54;;;;;;;0.25;0.25;;;;;;;;;;5012239;28;20551;-70
2021/11/21 02:04:20;;;;;;;0.82;0.68;;;;;;;;;;5010333;28;20234;-68
2021/11/21 02:06:46;;;;;;;1.15;1.15;;;;;;;;;;5015537;28;20060;-69
2021/11/21 02:09:12;;;;;;;3.72;1.95;;;;;;;;;;5010257;28;20069;-68
2021/11/21 02:11:38;;;;;;;2.83;1.27;;;;;;;;;;5011996;28;20073;-69
2021/11/21 02:14:04;;;;;;;1.50;1.15;;;;;;;;;;5011994;28;20033;-69
2021/11/21 02:16:31;;;;;;;1.40;1.30;;;;;;;;;;5010908;28;20025;-69
2021/11/21 02:18:58;;;;;;;2.03;1.40;;;;;;;;;;5011846;28;20034;-69
2021/11/21 02:21:24;;;;;;;2.22;1.00;;;;;;;;;;5010754;28;20879;-70
2021/11/21 02:23:50;;;;;;;3.58;1.23;;;;;;;;;;5011176;28;20033;-68
2021/11/21 02:26:17;;;;;;;0.57;0.57;;;;;;;;;;5013186;28;20034;-69
2021/11/21 02:28:44;;;;;;;1.20;1.02;;;;;;;;;;5010988;28;20064;-68
2021/11/21 02:31:11;;;;;;;1.95;1.67;;;;;;;;;;5009820;28;20049;-69
2021/11/21 02:33:37;;;;;;;0.70;0.70;;;;;;;;;;5009978;28;20026;-69
2021/11/21 02:36:05;;;;;;;1.10;0.98;;;;;;;;;;5010768;28;20053;-69
2021/11/21 02:38:31;;;;;;;3.45;1.15;;;;;;;;;;5006047;28;20041;-69
2021/11/21 02:40:59;;;;;;;10.05;1.45;;;;;;;;;;5010408;28;20030;-69
2021/11/21 02:43:25;;;;;;;1.58;1.48;;;;;;;;;;5009742;28;20045;-69
2021/11/21 02:45:52;;;;;;;5.47;0.75;;;;;;;;;;5010709;28;20097;-68
2021/11/21 02:48:19;;;;;;;0.90;0.90;;;;;;;;;;5010470;28;20124;-69
2021/11/21 02:50:46;;;;;;;1.02;1.02;;;;;;;;;;5013406;28;20105;-69
2021/11/21 02:53:14;;;;;;;8.25;1.25;;;;;;;;;;5009736;28;20033;-70
2021/11/21 02:55:40;;;;;;;0.82;0.80;;;;;;;;;;5010171;28;20034;-69
2021/11/21 02:58:06;;;;;;;0.57;0.43;;;;;;;;;;5010488;28;20030;-69
2021/11/21 03:00:33;;;;;;;4.25;1.98;;;;;;;;;;5009999;28;20077;-69
2021/11/21 03:02:59;;;;;;;0.22;0.22;;;;;;;;;;5010018;28;20473;-69
2021/11/21 03:05:25;;;;;;;0.90;0.90;;;;;;;;;;5010229;28;20117;-69
2021/11/21 03:07:51;;;;;;;2.00;1.85;;;;;;;;;;5010264;28;20022;-68
2021/11/21 03:10:19;;;;;;;0.77;0.75;;;;;;;;;;5009027;28;20030;-69
2021/11/21 03:12:49;;;;;;;2.17;1.52;;;;;;;;;;5009117;28;20061;-69
2021/11/21 03:15:15;;;;;;;1.67;1.23;;;;;;;;;;5009083;28;20022;-69
2021/11/21 03:17:43;;;;;;;5.00;1.20;;;;;;;;;;5009813;28;20030;-69
2021/11/21 03:20:09;;;;;;;0.85;0.85;;;;;;;;;;5008521;28;20049;-69
2021/11/21 03:22:35;;;;;;;0.63;0.63;;;;;;;;;;5010139;28;20108;-69
2021/11/21 03:25:01;;;;;;;0.88;0.88;;;;;;;;;;5009248;28;21588;-69
2021/11/21 03:27:27;;;;;;;0.40;0.40;;;;;;;;;;5009771;28;20072;-69
2021/11/21 03:29:53;;;;;;;5.15;1.27;;;;;;;;;;5008349;28;20093;-69
2021/11/21 03:32:19;;;;;;;6.20;0.63;;;;;;;;;;5009457;28;20052;-69
2021/11/21 03:34:46;;;;;;;0.73;0.73;;;;;;;;;;5008693;28;20485;-70
2021/11/21 03:37:12;;;;;;;1.67;1.58;;;;;;;;;;5009355;28;20470;-69
2021/11/21 03:39:38;;;;;;;0.38;0.38;;;;;;;;;;5008465;28;20040;-69
2021/11/21 03:42:04;;;;;;;2.25;1.92;;;;;;;;;;5009248;28;20060;-69
2021/11/21 03:44:30;;;;;;;6.93;2.25;;;;;;;;;;5009451;28;20065;-69
2021/11/21 03:46:56;;;;;;;1.20;0.80;;;;;;;;;;5008971;28;20044;-68
2021/11/21 03:49:22;;;;;;;0.85;0.85;;;;;;;;;;5008705;28;20499;-69
2021/11/21 03:51:48;;;;;;;0.82;0.70;;;;;;;;;;5008854;28;20034;-70
2021/11/21 03:54:14;;;;;;;0.57;0.50;;;;;;;;;;5009007;28;20038;-69
2021/11/21 03:56:40;;;;;;;1.55;1.10;;;;;;;;;;5010302;28;20399;-69
2021/11/21 03:59:06;;;;;;;0.77;0.77;;;;;;;;;;5012457;28;20054;-69
2021/11/21 04:01:34;;;;;;;4.82;1.10;;;;;;;;;;5009086;28;20366;-69
2021/11/21 04:04:00;;;;;;;2.45;1.10;;;;;;;;;;5010964;28;20491;-69
2021/11/21 04:06:26;;;;;;;0.52;0.52;;;;;;;;;;5009037;28;20038;-69
2021/11/21 04:08:52;;;;;;;1.55;1.45;;;;;;;;;;5008859;28;20667;-70
2021/11/21 04:11:18;;;;;;;1.75;1.65;;;;;;;;;;5008256;28;20092;-69
2021/11/21 04:13:44;;;;;;;2.13;1.95;;;;;;;;;;5012615;28;20018;-69
2021/11/21 04:16:10;;;;;;;0.65;0.65;;;;;;;;;;5008677;28;20365;-69
2021/11/21 04:18:36;;;;;;;1.02;1.02;;;;;;;;;;5009140;28;20022;-69
2021/11/21 04:21:02;;;;;;;2.50;1.92;;;;;;;;;;5008312;28;20507;-69
2021/11/21 04:23:30;;;;;;;5.15;2.53;;;;;;;;;;5009872;28;20137;-69
2021/11/21 04:25:57;;;;;;;1.15;1.15;;;;;;;;;;5008046;28;20029;-69
2021/11/21 04:28:23;;;;;;;2.40;1.02;;;;;;;;;;5009526;28;20108;-68
2021/11/21 04:30:49;;;;;;;4.65;0.47;;;;;;;;;;5008761;28;20113;-69
2021/11/21 04:33:16;;;;;;;4.28;0.65;;;;;;;;;;5008963;28;20061;-69
2021/11/21 04:35:42;;;;;;;5.13;2.95;;;;;;;;;;5008380;28;20026;-69
2021/11/21 04:38:08;;;;;;;2.60;1.65;;;;;;;;;;5010054;28;20117;-69
2021/11/21 04:40:34;;;;;;;2.05;1.58;;;;;;;;;;5013162;28;20036;-70
2021/11/21 04:42:59;;;;;;;1.58;0.98;;;;;;;;;;5014694;28;20057;-69
2021/11/21 04:45:25;;;;;;;1.52;1.35;;;;;;;;;;5016392;28;20052;-70
2021/11/21 04:47:51;;;;;;;2.50;2.30;;;;;;;;;;5012680;28;20026;-69
2021/11/21 04:50:17;;;;;;;2.08;1.60;;;;;;;;;;5013250;28;20117;-69
2021/11/21 04:52:43;;;;;;;0.60;0.60;;;;;;;;;;5012019;28;20491;-69
2021/11/21 04:55:10;;;;;;;0.98;0.98;;;;;;;;;;5013050;28;20469;-69
2021/11/21 04:57:41;;;;;;;2.75;1.15;;;;;;;;;;5012349;28;20041;-69
2021/11/21 05:00:08;;;;;;;0.03;0.03;;;;;;;;;;5015767;28;20104;-69
2021/11/21 05:02:39;;;;;;;0.57;0.55;;;;;;;;;;5011359;28;20025;-69
2021/11/21 05:05:05;;;;;;;1.23;1.15;;;;;;;;;;5013744;28;20026;-69
2021/11/21 05:07:31;;;;;;;4.82;2.00;;;;;;;;;;5019412;28;20022;-68
2021/11/21 05:09:57;;;;;;;0.52;0.52;;;;;;;;;;5010574;28;20396;-68
2021/11/21 05:12:23;;;;;;;1.15;1.02;;;;;;;;;;5011506;28;20026;-69
2021/11/21 05:14:49;;;;;;;2.20;2.03;;;;;;;;;;5021068;28;20023;-69
2021/11/21 05:17:15;;;;;;;2.15;1.77;;;;;;;;;;5012749;28;20026;-68
2021/11/21 05:19:41;;;;;;;0.30;0.30;;;;;;;;;;5012952;28;20033;-69
2021/11/21 05:22:07;;;;;;;1.42;1.33;;;;;;;;;;5011557;28;20034;-69
2021/11/21 05:24:33;;;;;;;1.85;1.75;;;;;;;;;;5004948;28;20050;-69
2021/11/21 05:26:59;;;;;;;4.63;2.03;;;;;;;;;;5011474;28;20414;-69
2021/11/21 05:29:25;;;;;;;2.63;1.48;;;;;;;;;;5014494;28;20262;-69
2021/11/21 05:31:51;;;;;;;1.98;1.52;;;;;;;;;;5014069;28;20030;-68
2021/11/21 05:34:17;;;;;;;0.45;0.45;;;;;;;;;;5011731;28;20058;-68
2021/11/21 05:36:44;;;;;;;3.42;1.40;;;;;;;;;;5012431;28;20054;-69
2021/11/21 05:39:10;;;;;;;0.68;0.68;;;;;;;;;;5012052;28;20026;-68
2021/11/21 05:41:36;;;;;;;4.40;1.52;;;;;;;;;;5011667;28;20497;-69
2021/11/21 05:44:03;;;;;;;1.27;1.00;;;;;;;;;;5012953;28;20038;-69
2021/11/21 05:46:29;;;;;;;7.20;2.85;;;;;;;;;;5014161;28;20025;-68
2021/11/21 05:48:54;;;;;;;0.73;0.73;;;;;;;;;;5013260;28;20017;-69
2021/11/21 05:51:20;;;;;;;1.42;1.35;;;;;;;;;;5014145;28;20551;-69
2021/11/21 05:53:46;;;;;;;3.88;0.80;;;;;;;;;;5011151;28;20026;-69
2021/11/21 05:56:12;;;;;;;1.83;1.55;;;;;;;;;;5011039;28;20566;-69
2021/11/21 05:58:38;;;;;;;0.98;0.85;;;;;;;;;;5011827;28;20029;-69
2021/11/21 06:01:04;;;;;;;2.97;1.05;;;;;;;;;;5011450;28;20186;-69
2021/11/21 06:03:30;;;;;;;4.03;1.60;;;;;;;;;;5011557;28;20113;-69
2021/11/21 06:05:56;;;;;;;1.48;1.30;;;;;;;;;;5012559;28;20026;-68
2021/11/21 06:08:22;;;;;;;3.25;0.95;;;;;;;;;;5015413;28;20033;-68
2021/11/21 06:10:48;;;;;;;4.60;3.42;;;;;;;;;;5012898;28;20006;-69
2021/11/21 06:13:14;;;;;;;3.40;2.20;;;;;;;;;;5010838;28;20030;-68
2021/11/21 06:15:40;;;;;;;1.45;1.02;;;;;;;;;;5009645;28;20531;-69
2021/11/21 06:18:06;;;;;;;2.50;2.30;;;;;;;;;;5003537;28;20103;-69
2021/11/21 06:20:32;;;;;;;3.13;2.20;;;;;;;;;;5021753;28;20026;-69
2021/11/21 06:22:58;;;;;;;3.13;1.45;;;;;;;;;;5010758;28;20037;-69
2021/11/21 06:25:24;;;;;;;3.65;1.95;;;;;;;;;;5009312;28;20503;-68
2021/11/21 06:27:49;;;;;;;0.73;0.73;;;;;;;;;;5011702;28;20037;-69
2021/11/21 06:30:15;;;;;;;8.13;1.15;;;;;;;;;;5012887;28;20116;-69
2021/11/21 06:32:41;;;;;;;0.55;0.55;;;;;;;;;;5010637;28;20025;-69
2021/11/21 06:35:07;;;;;;;6.65;3.72;;;;;;;;;;5009955;28;20041;-69
2021/11/21 06:37:34;;;;;;;1.80;1.70;;;;;;;;;;5010733;28;20378;-69
2021/11/21 06:40:00;;;;;;;1.40;0.85;;;;;;;;;;5009429;28;20469;-69
2021/11/21 06:42:25;;;;;;;1.60;0.93;;;;;;;;;;5010840;28;20096;-69
2021/11/21 06:44:51;;;;;;;1.50;0.73;;;;;;;;;;5008851;28;20517;-69
2021/11/21 06:47:18;;;;;;;1.48;1.35;;;;;;;;;;5010954;28;20026;-68
2021/11/21 06:49:45;;;;;;;1.42;1.42;;;;;;;;;;5008398;28;20389;-70
2021/11/21 06:52:11;;;;;;;0.73;0.73;;;;;;;;;;5010221;28;20057;-70
2021/11/21 06:54:37;;;;;;;3.22;1.58;;;;;;;;;;5010884;28;20022;-74
2021/11/21 06:57:03;;;;;;;1.02;1.00;;;;;;;;;;5007840;28;20045;-69
2021/11/21 06:59:29;;;;;;;0.77;0.70;;;;;;;;;;5013036;28;20843;-69
2021/11/21 07:01:55;;;;;;;3.67;1.15;;;;;;;;;;5010162;28;20111;-67
2021/11/21 07:04:21;;;;;;;1.58;1.05;;;;;;;;;;5013259;28;20026;-71
2021/11/21 07:06:47;;;;;;;0.28;0.28;;;;;;;;;;5008320;28;20160;-68
2021/11/21 07:09:14;;;;;;;2.80;0.77;;;;;;;;;;5010136;28;20020;-67
2021/11/21 07:11:40;;;;;;;2.92;2.45;;;;;;;;;;5009901;28;20034;-68
2021/11/21 07:14:07;;;;;;;6.38;2.20;;;;;;;;;;5014334;28;20026;-68
2021/11/21 07:16:34;;;;;;;2.55;1.60;;;;;;;;;;5012608;28;20104;-69
2021/11/21 07:19:00;;;;;;;2.70;1.40;;;;;;;;;;5011620;28;20026;-69
2021/11/21 07:21:26;;;;;;;2.05;0.63;;;;;;;;;;5009980;28;20492;-69
2021/11/21 07:23:52;;;;;;;1.05;0.70;;;;;;;;;;5010058;28;20492;-70
2021/11/21 07:26:18;;;;;;;1.20;1.05;;;;;;;;;;5009964;28;20036;-69
2021/11/21 07:28:44;;;;;;;0.50;0.50;;;;;;;;;;5009898;28;20040;-69
2021/11/21 07:31:10;;;;;;;0.45;0.45;;;;;;;;;;5010306;28;20080;-69
2021/11/21 07:33:37;;;;;;;1.23;0.93;;;;;;;;;;5009255;28;20034;-69
2021/11/21 07:36:03;;;;;;;2.85;1.70;;;;;;;;;;5010711;28;20030;-69
2021/11/21 07:38:29;;;;;;;0.95;0.95;;;;;;;;;;5009635;28;20144;-69
2021/11/21 07:40:55;;;;;;;1.48;1.23;;;;;;;;;;5011169;28;20584;-70
2021/11/21 07:43:21;;;;;;;1.05;0.95;;;;;;;;;;5003516;28;20105;-69
2021/11/21 07:45:48;;;;;;;0.22;0.22;;;;;;;;;;5009714;28;20026;-71
2021/11/21 07:48:13;;;;;;;1.17;1.00;;;;;;;;;;5009002;28;20048;-71
2021/11/21 07:50:39;;;;;;;1.67;1.50;;;;;;;;;;5010357;28;20385;-69
2021/11/21 07:53:05;;;;;;;2.55;0.70;;;;;;;;;;5009779;28;20037;-70
2021/11/21 07:55:31;;;;;;;2.88;1.98;;;;;;;;;;5009197;28;20030;-70
2021/11/21 07:57:57;;;;;;;1.52;1.42;;;;;;;;;;5008380;28;20033;-69
2021/11/21 08:00:23;;;;;;;4.35;1.52;;;;;;;;;;5010822;28;20104;-70
2021/11/21 08:02:49;;;;;;;1.02;1.02;;;;;;;;;;5009975;28;20033;-69
2021/11/21 08:05:25;;;;;;;4.13;2.63;;;;;;;;;;5011173;28;20026;-70
2021/11/21 08:07:56;;;;;;;1.40;1.30;;;;;;;;;;5009858;28;20037;-70
2021/11/21 08:10:22;;;;;;;0.50;0.50;;;;;;;;;;5007843;28;20037;-69
2021/11/21 08:12:48;;;;;;;0.95;0.95;;;;;;;;;;5008593;28;20116;-70
2021/11/21 08:15:14;;;;;;;0.57;0.57;;;;;;;;;;5041691;28;20030;-70
2021/11/21 08:17:40;;;;;;;1.40;1.30;;;;;;;;;;5012376;28;20083;-69
2021/11/21 08:20:07;;;;;;;0.65;0.65;;;;;;;;;;5017143;28;20021;-70
2021/11/21 08:22:33;;;;;;;3.88;1.33;;;;;;;;;;5012716;28;20025;-69
2021/11/21 08:24:59;;;;;;;0.20;0.20;;;;;;;;;;5012283;28;20084;-69
2021/11/21 08:27:25;;;;;;;0.50;0.50;;;;;;;;;;5011491;28;20037;-70
2021/11/21 08:29:51;;;;;;;6.57;1.60;;;;;;;;;;5012148;28;20099;-70
2021/11/21 08:32:18;;;;;;;0.38;0.38;;;;;;;;;;5012615;28;20497;-69
2021/11/21 08:34:45;;;;;;;0.77;0.77;;;;;;;;;;5012389;28;20040;-69
2021/11/21 08:37:11;;;;;;;1.55;0.47;;;;;;;;;;5012394;28;20487;-69
2021/11/21 08:39:36;;;;;;;0.85;0.85;;;;;;;;;;5007400;28;20038;-70
2021/11/21 08:42:02;;;;;;;0.47;0.47;;;;;;;;;;5013419;28;20030;-71
2021/11/21 08:44:28;;;;;;;0.95;0.40;;;;;;;;;;5014134;28;20030;-71
2021/11/21 08:46:54;;;;;;;1.40;1.30;;;;;;;;;;5013747;28;20053;-72
2021/11/21 08:49:20;;;;;;;0.22;0.22;;;;;;;;;;5012767;28;20041;-72
2021/11/21 08:51:48;;;;;;;1.58;1.48;;;;;;;;;;5011725;28;20030;-72
2021/11/21 08:54:16;;;;;;;1.75;1.38;;;;;;;;;;5008898;28;20053;-72
2021/11/21 08:56:42;;;;;;;0.30;0.30;;;;;;;;;;5012392;28;20053;-74
2021/11/21 08:59:08;;;;;;;1.15;0.90;;;;;;;;;;5012563;28;20123;-72
2021/11/21 09:01:34;;;;;;;0.70;0.70;;;;;;;;;;5013479;28;20042;-72
2021/11/21 09:04:00;;;;;;;0.57;0.57;;;;;;;;;;5012184;28;20120;-73
2021/11/21 09:06:26;;;;;;;0.20;0.20;;;;;;;;;;5013852;28;20026;-73
2021/11/21 09:08:52;;;;;;;1.08;1.08;;;;;;;;;;5012341;28;20099;-73
2021/11/21 09:11:18;;;;;;;0.70;0.70;;;;;;;;;;5023466;28;20395;-72
2021/11/21 09:13:44;;;;;;;1.63;0.65;;;;;;;;;;5014638;28;20080;-72
2021/11/21 09:16:10;;;;;;;1.17;1.08;;;;;;;;;;5013028;28;20030;-73
2021/11/21 09:18:36;;;;;;;0.40;0.40;;;;;;;;;;5009200;28;20105;-72
2021/11/21 09:21:02;;;;;;;1.40;1.23;;;;;;;;;;5008469;28;20511;-71
2021/11/21 09:23:28;;;;;;;0.88;0.55;;;;;;;;;;5012454;28;20097;-72
2021/11/21 09:25:54;;;;;;;9.18;1.50;;;;;;;;;;5015317;28;20017;-73
2021/11/21 09:28:21;;;;;;;2.72;0.75;;;;;;;;;;5011598;28;20026;-73
2021/11/21 09:30:47;;;;;;;0.43;0.43;;;;;;;;;;5009647;28;20034;-73
2021/11/21 09:33:13;;;;;;;0.52;0.52;;;;;;;;;;5013751;28;20061;-73
2021/11/21 09:35:39;;;;;;;2.15;1.02;;;;;;;;;;5012449;28;20037;-72
2021/11/21 09:38:06;;;;;;;6.32;0.82;;;;;;;;;;5012095;28;20052;-72
2021/11/21 09:40:35;;;;;;;1.08;0.98;;;;;;;;;;5001307;28;20033;-71
2021/11/21 09:43:01;;;;;;;0.32;0.32;;;;;;;;;;5010464;28;20033;-73
2021/11/21 09:45:28;;;;;;;4.18;1.65;;;;;;;;;;5013175;28;20075;-70
2021/11/21 09:47:55;;;;;;;0.40;0.35;;;;;;;;;;5011649;28;20069;-72
2021/11/21 09:50:22;;;;;;;1.83;1.15;;;;;;;;;;5012330;28;20037;-72
2021/11/21 09:52:48;;;;;;;1.95;0.70;;;;;;;;;;5011700;28;20057;-73
2021/11/21 09:55:15;;;;;;;1.80;0.43;;;;;;;;;;5011040;28;20045;-72
2021/11/21 09:57:41;;;;;;;1.88;1.38;;;;;;;;;;5013526;28;20143;-73
2021/11/21 10:00:08;;;;;;;1.48;0.95;;;;;;;;;;5021717;28;20528;-72
2021/11/21 10:02:36;;;;;;;0.60;0.60;;;;;;;;;;5008667;28;20033;-72
2021/11/21 10:05:15;;;;;;;6.35;1.60;;;;;;;;;;5011544;28;20034;-72
2021/11/21 10:07:41;;;;;;;0.93;0.68;;;;;;;;;;5010317;28;20030;-72
2021/11/21 10:10:11;;;;;;;1.25;1.15;;;;;;;;;;5010887;28;20034;-72
2021/11/21 10:12:49;;;;;;;0.80;0.80;;;;;;;;;;5010219;28;20440;-72
2021/11/21 10:15:17;;;;;;;12.70;0.98;;;;;;;;;;5012677;28;20311;-71
2021/11/21 10:17:47;;;;;;;0.70;0.70;;;;;;;;;;5008052;28;20034;-72
2021/11/21 10:20:16;;;;;;;0.77;0.77;;;;;;;;;;5009552;28;20016;-73
2021/11/21 10:22:46;;;;;;;1.23;1.17;;;;;;;;;;5011520;28;20029;-73
2021/11/21 10:25:12;;;;;;;3.30;1.17;;;;;;;;;;5003541;28;20508;-72
2021/11/21 10:27:41;;;;;;;0.47;0.47;;;;;;;;;;5013736;28;20041;-73
2021/11/21 10:30:08;;;;;;;8.10;1.80;;;;;;;;;;5015370;28;20076;-73
2021/11/21 10:32:34;;;;;;;1.77;1.38;;;;;;;;;;5018203;28;20029;-73
2021/11/21 10:35:00;;;;;;;1.75;0.60;;;;;;;;;;5011391;28;20080;-73
2021/11/21 10:37:30;;;;;;;2.00;1.30;;;;;;;;;;5015536;28;20037;-74
2021/11/21 10:40:00;;;;;;;0.90;0.90;;;;;;;;;;5011048;28;20465;-73
2021/11/21 10:42:26;;;;;;;0.85;0.70;;;;;;;;;;5011806;28;20033;-73
2021/11/21 10:44:55;;;;;;;0.70;0.70;;;;;;;;;;5009620;28;20392;-73
2021/11/21 10:47:21;;;;;;;0.77;0.55;;;;;;;;;;5015729;28;20029;-71
2021/11/21 10:49:51;;;;;;;2.90;1.02;;;;;;;;;;5011988;28;20034;-71
2021/11/21 10:52:18;;;;;;;9.53;3.10;;;;;;;;;;5008079;28;20061;-71
2021/11/21 10:54:55;;;;;;;29.02;0.95;;;;;;;;;;5009441;28;20036;-72
2021/11/21 10:57:29;;;;;;;3.53;2.30;;;;;;;;;;5008839;28;20488;-71
2021/11/21 10:59:59;;;;;;;0.93;0.73;;;;;;;;;;5011412;28;20046;-72
2021/11/21 11:02:37;;;;;;;0.60;0.60;;;;;;;;;;5010634;28;20020;-72
2021/11/21 11:05:13;;;;;;;0.70;0.70;;;;;;;;;;5011009;28;20026;-72
2021/11/21 11:07:45;;;;;;;0.98;0.93;;;;;;;;;;5010786;28;20041;-73
2021/11/21 11:10:14;;;;;;;4.55;0.45;;;;;;;;;;5009954;28;20030;-73
2021/11/21 11:12:41;;;;;;;0.32;0.32;;;;;;;;;;5010840;28;20029;-72
2021/11/21 11:15:08;;;;;;;1.35;1.30;;;;;;;;;;5010370;28;22078;-72
2021/11/21 11:17:34;;;;;;;2.53;1.27;;;;;;;;;;5009921;28;20060;-73
2021/11/21 11:20:01;;;;;;;0.52;0.52;;;;;;;;;;5009775;28;20026;-73
2021/11/21 11:22:28;;;;;;;0.45;0.45;;;;;;;;;;5010235;28;20495;-73
2021/11/21 11:24:55;;;;;;;0.20;0.20;;;;;;;;;;5010467;28;20366;-73
2021/11/21 11:27:45;;;;;;;0.50;0.47;;;;;;;;;;5008713;28;20057;-77
2021/11/21 11:30:11;;;;;;;1.50;0.90;;;;;;;;;;5007992;28;20513;-70
2021/11/21 11:32:44;;;;;;;0.75;0.75;;;;;;;;;;5009308;28;20033;-69
2021/11/21 11:35:19;;;;;;;0.13;0.13;;;;;;;;;;5010882;28;20068;-71
2021/11/21 11:37:46;;;;;;;0.30;0.30;;;;;;;;;;5012125;28;20029;-70
2021/11/21 11:40:27;;;;;;;0.17;0.17;;;;;;;;;;5012912;28;20366;-70
2021/11/21 11:42:53;;;;;;;;;;;;;;;;;;5013185;28;20022;-71
2021/11/21 11:45:39;;;;;;;1.50;1.40;;;;;;;;;;5008568;28;19932;-72
2021/11/21 11:48:24;;;;;;;1.02;0.52;;;;;;;;;;5010041;28;20033;-71
2021/11/21 11:50:49;;;;;;;0.52;0.52;;;;;;;;;;5004644;28;20037;-70
2021/11/21 11:53:32;;;;;;;0.25;0.25;;;;;;;;;;5010973;28;20038;-70
2021/11/21 11:56:17;;;;;;;0.10;0.10;;;;;;;;;;5013305;28;20038;-74
2021/11/21 11:58:50;;;;;;;0.65;0.60;;;;;;;;;;5009685;28;20129;-73
2021/11/21 12:01:35;;;;;;;3.53;1.27;;;;;;;;;;5009504;28;20093;-74
2021/11/21 12:04:01;;;;;;;0.43;0.43;;;;;;;;;;5007028;28;20496;-73
2021/11/21 12:06:37;;;;;;;0.75;0.75;;;;;;;;;;5018250;28;20576;-73
2021/11/21 12:09:22;;;;;;;2.13;1.23;;;;;;;;;;5009088;28;20034;-72
2021/11/21 12:11:55;;;;;;;1.00;0.60;;;;;;;;;;5005086;28;20040;-73
2021/11/21 12:14:25;;;;;;;0.40;0.40;;;;;;;;;;5005301;28;20025;-72
2021/11/21 12:16:55;;;;;;;0.20;0.15;;;;;;;;;;5008328;28;20041;-72
2021/11/21 12:19:39;;;;;;;1.00;0.52;;;;;;;;;;5009507;28;20473;-72
2021/11/21 12:22:06;;;;;;;0.75;0.75;;;;;;;;;;5011281;28;20037;-69
2021/11/21 12:24:33;;;;;;;1.48;0.90;;;;;;;;;;5006668;28;20021;-70
2021/11/21 12:27:00;;;;;;;0.30;0.30;;;;;;;;;;5008417;28;20048;-70
2021/11/21 12:29:33;;;;;;;3.00;0.50;;;;;;;;;;5008980;28;20026;-70
2021/11/21 12:32:17;;;;;;;0.10;0.10;;;;;;;;;;5010333;28;20435;-70
2021/11/21 12:34:43;;;;;;;0.47;0.47;;;;;;;;;;5008489;28;20029;-69
2021/11/21 12:37:21;;;;;;;1.17;0.98;;;;;;;;;;5015703;28;20045;-69
2021/11/21 12:39:48;;;;;;;0.13;0.13;;;;;;;;;;5009266;28;20125;-70
2021/11/21 12:42:18;;;;;;;0.77;0.77;;;;;;;;;;5008767;28;20025;-70
2021/11/21 12:44:45;;;;;;;0.52;0.52;;;;;;;;;;5002905;28;20480;-70
2021/11/21 12:47:11;;;;;;;0.98;0.35;;;;;;;;;;5004698;28;20037;-70
2021/11/21 12:49:44;;;;;;;0.73;0.45;;;;;;;;;;5009424;28;20048;-70
2021/11/21 12:52:12;;;;;;;0.15;0.15;;;;;;;;;;5007913;28;20033;-70
2021/11/21 12:54:39;;;;;;;0.63;0.63;;;;;;;;;;5005608;28;20030;-70
2021/11/21 12:57:06;;;;;;;3.03;1.05;;;;;;;;;;5004080;28;20037;-70
2021/11/21 13:00:11;;;;;;;0.65;0.65;;;;;;;;;;5014337;28;20052;-70
2021/11/21 13:02:43;;;;;;;0.43;0.43;;;;;;;;;;4999036;28;20045;-70
2021/11/21 13:05:09;;;;;;;0.98;0.63;;;;;;;;;;5008808;28;20025;-70
2021/11/21 13:07:44;;;;;;;2.38;1.83;;;;;;;;;;5004336;28;20030;-80
2021/11/21 13:10:13;;;;;;;0.40;0.40;;;;;;;;;;5007045;28;20026;-73
2021/11/21 13:12:50;;;;;;;1.80;1.13;;;;;;;;;;5010207;28;20041;-76
2021/11/21 13:15:23;;;;;;;0.45;0.45;;;;;;;;;;5003692;28;20029;-71
2021/11/21 13:18:08;;;;;;;1.38;1.27;;;;;;;;;;5009450;28;20034;-71
2021/11/21 13:20:39;;;;;;;0.80;0.80;;;;;;;;;;5003309;28;20030;-71
2021/11/21 13:23:13;;;;;;;3.35;1.42;;;;;;;;;;5009021;28;20029;-72
2021/11/21 13:25:51;;;;;;;0.47;0.35;;;;;;;;;;5010818;28;20084;-72
2021/11/21 13:28:36;;;;;;;6.50;1.27;;;;;;;;;;5009473;28;20036;-73
2021/11/21 13:31:11;;;;;;;3.70;0.93;;;;;;;;;;5005983;28;20036;-71
2021/11/21 13:33:45;;;;;;;0.28;0.28;;;;;;;;;;5008436;28;20022;-71
2021/11/21 13:36:30;;;;;;;3.28;1.25;;;;;;;;;;5009420;28;20129;-71
2021/11/21 13:39:03;;;;;;;6.32;1.85;;;;;;;;;;5009687;28;20080;-71
2021/11/21 13:41:29;;;;;;;0.65;0.65;;;;;;;;;;5008680;28;20030;-76
2021/11/21 13:44:01;;;;;;;0.20;0.20;;;;;;;;;;5008457;28;20025;-71
2021/11/21 13:46:35;;;;;;;9.95;2.53;;;;;;;;;;5009311;28;20277;-72
2021/11/21 13:49:01;;;;;;;0.60;0.60;;;;;;;;;;5010746;28;20465;-71
2021/11/21 13:51:28;;;;;;;1.58;1.48;;;;;;;;;;5008341;28;20040;-73
2021/11/21 13:53:55;;;;;;;3.17;0.80;;;;;;;;;;5009370;28;20124;-70
2021/11/21 13:56:21;;;;;;;1.63;1.52;;;;;;;;;;5008742;28;20499;-71
2021/11/21 13:58:48;;;;;;;0.40;0.40;;;;;;;;;;5010142;28;20068;-75
2021/11/21 14:01:17;;;;;;;0.10;0.10;;;;;;;;;;5008976;28;20037;-74
2021/11/21 14:03:44;;;;;;;7.05;1.90;;;;;;;;;;5008234;28;20021;-74
2021/11/21 14:06:11;;;;;;;0.30;0.30;;;;;;;;;;5012746;28;20022;-73
2021/11/21 14:08:41;;;;;;;0.35;0.35;;;;;;;;;;5011893;28;20029;-73
2021/11/21 14:11:10;;;;;;;0.20;0.20;;;;;;;;;;5010515;28;20037;-74
2021/11/21 14:13:40;;;;;;;7.28;0.82;;;;;;;;;;5023657;28;20830;-74
2021/11/21 14:16:07;;;;;;;0.63;0.63;;;;;;;;;;5010972;28;20026;-73
2021/11/21 14:18:36;;;;;;;0.30;0.30;;;;;;;;;;5014215;28;20053;-75
2021/11/21 14:21:06;;;;;;;0.45;0.43;;;;;;;;;;5012235;28;20038;-72
2021/11/21 14:23:32;;;;;;;0.80;0.80;;;;;;;;;;5015987;28;20022;-72
2021/11/21 14:26:03;;;;;;;0.20;0.20;;;;;;;;;;5008950;28;20029;-72
2021/11/21 14:28:29;;;;;;;;;;;;;;;;;;5012617;28;20125;-72
2021/11/21 14:30:59;;;;;;;0.25;0.25;;;;;;;;;;5012675;28;20008;-70
2021/11/21 14:33:26;;;;;;;2.35;0.47;;;;;;;;;;5011470;28;20451;-72
2021/11/21 14:35:57;;;;;;;0.10;0.10;;;;;;;;;;5014874;28;20034;-71
2021/11/21 14:38:24;;;;;;;0.20;0.20;;;;;;;;;;5009878;28;20030;-71
2021/11/21 14:41:10;;;;;;;0.38;0.38;;;;;;;;;;5011405;28;20059;-69
2021/11/21 14:43:40;;;;;;;0.10;0.10;;;;;;;;;;5010892;28;20073;-69
2021/11/21 14:46:06;;;;;;;8.83;0.50;;;;;;;;;;5011620;28;20121;-72
2021/11/21 14:48:34;;;;;;;0.57;0.57;;;;;;;;;;5014202;28;20277;-73